This is the latest recevied weather packets stored in our database for station/object WX2NJ. If no packets are shown the sender has not sent any weather packets the latest 10 day(s).
| Time | Temp. | Humidity | Pressure | Rain* | Wind** | Luminosity | Snow |
|---|---|---|---|---|---|---|---|
| 1777956527 | 15° C | 77% | 1014.8 hPa | 0 mm | - | 0 W/m² | - |
| 1777956224 | 15° C | 77% | 1014.9 hPa | 0 mm | - | 0 W/m² | - |
| 1777955920 | 15° C | 77% | 1014.7 hPa | 0 mm | - | 0 W/m² | - |
| 1777955617 | 15° C | 77% | 1014.8 hPa | 0 mm | - | 0 W/m² | - |
| 1777955313 | 15° C | 76% | 1014.9 hPa | 0 mm | - | 0 W/m² | - |
| 1777955011 | 15° C | 76% | 1015 hPa | 0 mm | - | 0 W/m² | - |
| 1777954707 | 15° C | 76% | 1015.1 hPa | 0 mm | - | 0 W/m² | - |
| 1777954405 | 15.56° C | 75% | 1015.1 hPa | 0 mm | - | 0 W/m² | - |
| 1777954101 | 15.56° C | 75% | 1015 hPa | 0 mm | - | 0 W/m² | - |
| 1777953496 | 15.56° C | 74% | 1014.9 hPa | 0 mm | - | 0 W/m² | - |
| 1777943494 | 16.67° C | 63% | 1015 hPa | 0 mm | - | 0 W/m² | - |
| 1777943194 | 16.11° C | 63% | 1015 hPa | 0 mm | - | 0 W/m² | - |
| 1777940164 | 16.11° C | 64% | 1014.6 hPa | 0 mm | - | 0 W/m² | - |
| 1777934709 | 18.89° C | 49% | 1013.7 hPa | 0 mm | - | 27 W/m² | - |
| 1777934406 | 18.89° C | 49% | 1013.9 hPa | 0 mm | - | 28 W/m² | - |
| 1777932283 | 18.89° C | 49% | 1014.1 hPa | 0 mm | - | 55 W/m² | - |
| 1777931677 | 19.44° C | 47% | 1014 hPa | 0 mm | - | 56 W/m² | - |
| 1777929554 | 20.56° C | 43% | 1014.1 hPa | 0 mm | - | 218 W/m² | - |
| 1777929250 | 20.56° C | 44% | 1014 hPa | 0 mm | - | 103 W/m² | - |
| 1777928947 | 20° C | 44% | 1014 hPa | 0 mm | - | 70 W/m² | - |
| 1777928039 | 20° C | 44% | 1013.9 hPa | 0 mm | - | 371 W/m² | - |
| 1777927737 | 20.56° C | 44% | 1013.8 hPa | 0 mm | - | 385 W/m² | - |
| 1777927435 | 20.56° C | 44% | 1014 hPa | 0 mm | - | 358 W/m² | - |
| 1777926830 | 21.11° C | 43% | 1013.9 hPa | 0 mm | - | 453 W/m² | - |
| 1777925618 | 20.56° C | 51% | 1013.7 hPa | 0 mm | - | 542 W/m² | - |
* Rain latest hour (hover to see other rain measurements)
** Current wind speed in m/s (hover to see current wind gust speed)